sensor_id;sensor_type;location;lat;lon;timestamp;P1;durP1;ratioP1;P2;durP2;ratioP2
53959;SDS011;39866;48.638;-2.020;2023-08-17T00:00:14;2.38;;;1.85;;
53959;SDS011;39866;48.638;-2.020;2023-08-17T00:02:40;3.42;;;2.00;;
53959;SDS011;39866;48.638;-2.020;2023-08-17T00:05:06;4.65;;;1.98;;
53959;SDS011;39866;48.638;-2.020;2023-08-17T00:07:32;4.25;;;2.10;;
53959;SDS011;39866;48.638;-2.020;2023-08-17T00:09:58;3.10;;;2.00;;
53959;SDS011;39866;48.638;-2.020;2023-08-17T00:12:24;4.40;;;2.20;;
53959;SDS011;39866;48.638;-2.020;2023-08-17T00:14:50;2.92;;;2.05;;
53959;SDS011;39866;48.638;-2.020;2023-08-17T00:17:16;2.78;;;1.80;;
53959;SDS011;39866;48.638;-2.020;2023-08-17T00:19:41;3.53;;;2.00;;
53959;SDS011;39866;48.638;-2.020;2023-08-17T00:22:07;3.10;;;2.13;;
53959;SDS011;39866;48.638;-2.020;2023-08-17T00:24:32;3.90;;;2.28;;
53959;SDS011;39866;48.638;-2.020;2023-08-17T00:26:57;2.22;;;2.03;;
53959;SDS011;39866;48.638;-2.020;2023-08-17T00:29:23;2.45;;;2.03;;
53959;SDS011;39866;48.638;-2.020;2023-08-17T00:31:48;3.67;;;2.30;;
53959;SDS011;39866;48.638;-2.020;2023-08-17T00:34:13;2.40;;;2.00;;
53959;SDS011;39866;48.638;-2.020;2023-08-17T00:36:39;3.78;;;2.08;;
53959;SDS011;39866;48.638;-2.020;2023-08-17T00:39:04;4.30;;;2.20;;
53959;SDS011;39866;48.638;-2.020;2023-08-17T00:41:29;3.53;;;2.10;;
53959;SDS011;39866;48.638;-2.020;2023-08-17T00:43:55;26.98;;;8.68;;
53959;SDS011;39866;48.638;-2.020;2023-08-17T00:46:21;15.18;;;4.03;;
53959;SDS011;39866;48.638;-2.020;2023-08-17T00:48:48;14.35;;;3.95;;
53959;SDS011;39866;48.638;-2.020;2023-08-17T00:51:13;13.90;;;4.00;;
53959;SDS011;39866;48.638;-2.020;2023-08-17T00:53:39;7.32;;;2.78;;
53959;SDS011;39866;48.638;-2.020;2023-08-17T00:56:05;5.43;;;2.30;;
53959;SDS011;39866;48.638;-2.020;2023-08-17T00:58:30;5.88;;;2.30;;
53959;SDS011;39866;48.638;-2.020;2023-08-17T01:00:56;6.63;;;2.60;;
53959;SDS011;39866;48.638;-2.020;2023-08-17T01:03:22;4.18;;;1.90;;
53959;SDS011;39866;48.638;-2.020;2023-08-17T01:05:48;3.20;;;1.75;;
53959;SDS011;39866;48.638;-2.020;2023-08-17T01:08:13;2.90;;;1.70;;
53959;SDS011;39866;48.638;-2.020;2023-08-17T01:13:44;2.85;;;1.60;;
53959;SDS011;39866;48.638;-2.020;2023-08-17T01:16:21;4.75;;;1.90;;
53959;SDS011;39866;48.638;-2.020;2023-08-17T01:18:51;2.70;;;1.70;;
53959;SDS011;39866;48.638;-2.020;2023-08-17T01:21:17;5.22;;;1.92;;
53959;SDS011;39866;48.638;-2.020;2023-08-17T01:23:45;3.00;;;1.50;;
53959;SDS011;39866;48.638;-2.020;2023-08-17T01:26:12;2.95;;;1.58;;
53959;SDS011;39866;48.638;-2.020;2023-08-17T01:28:40;2.70;;;1.52;;
53959;SDS011;39866;48.638;-2.020;2023-08-17T01:31:14;3.03;;;1.60;;
53959;SDS011;39866;48.638;-2.020;2023-08-17T01:33:50;2.90;;;1.60;;
53959;SDS011;39866;48.638;-2.020;2023-08-17T01:36:20;2.80;;;1.50;;
53959;SDS011;39866;48.638;-2.020;2023-08-17T01:38:50;2.20;;;1.60;;
53959;SDS011;39866;48.638;-2.020;2023-08-17T01:41:16;2.72;;;1.52;;
53959;SDS011;39866;48.638;-2.020;2023-08-17T01:43:43;3.28;;;1.40;;
53959;SDS011;39866;48.638;-2.020;2023-08-17T01:46:12;1.88;;;1.20;;
53959;SDS011;39866;48.638;-2.020;2023-08-17T01:48:40;2.10;;;1.55;;
53959;SDS011;39866;48.638;-2.020;2023-08-17T01:51:05;2.97;;;1.40;;
53959;SDS011;39866;48.638;-2.020;2023-08-17T01:53:31;1.98;;;1.40;;
53959;SDS011;39866;48.638;-2.020;2023-08-17T01:55:56;4.30;;;1.80;;
53959;SDS011;39866;48.638;-2.020;2023-08-17T01:58:21;2.42;;;1.55;;
53959;SDS011;39866;48.638;-2.020;2023-08-17T02:00:47;4.50;;;1.65;;
53959;SDS011;39866;48.638;-2.020;2023-08-17T02:03:12;3.28;;;1.48;;
53959;SDS011;39866;48.638;-2.020;2023-08-17T02:05:37;2.83;;;1.50;;
53959;SDS011;39866;48.638;-2.020;2023-08-17T02:08:03;2.35;;;1.40;;
53959;SDS011;39866;48.638;-2.020;2023-08-17T02:10:28;3.13;;;1.60;;
53959;SDS011;39866;48.638;-2.020;2023-08-17T02:12:54;2.50;;;1.55;;
53959;SDS011;39866;48.638;-2.020;2023-08-17T02:15:19;3.58;;;1.40;;
53959;SDS011;39866;48.638;-2.020;2023-08-17T02:17:44;2.60;;;1.50;;
53959;SDS011;39866;48.638;-2.020;2023-08-17T02:20:10;1.77;;;1.25;;
53959;SDS011;39866;48.638;-2.020;2023-08-17T02:22:35;1.98;;;1.20;;
53959;SDS011;39866;48.638;-2.020;2023-08-17T02:25:01;1.60;;;1.17;;
53959;SDS011;39866;48.638;-2.020;2023-08-17T02:27:26;3.20;;;1.30;;
53959;SDS011;39866;48.638;-2.020;2023-08-17T02:29:51;3.03;;;1.52;;
53959;SDS011;39866;48.638;-2.020;2023-08-17T02:32:17;2.10;;;1.30;;
53959;SDS011;39866;48.638;-2.020;2023-08-17T02:34:42;2.85;;;1.20;;
53959;SDS011;39866;48.638;-2.020;2023-08-17T02:37:08;2.70;;;1.10;;
53959;SDS011;39866;48.638;-2.020;2023-08-17T02:39:33;2.47;;;1.27;;
53959;SDS011;39866;48.638;-2.020;2023-08-17T02:41:58;3.22;;;1.30;;
53959;SDS011;39866;48.638;-2.020;2023-08-17T02:44:24;2.47;;;1.30;;
53959;SDS011;39866;48.638;-2.020;2023-08-17T02:46:49;2.65;;;1.10;;
53959;SDS011;39866;48.638;-2.020;2023-08-17T02:49:14;2.05;;;1.02;;
53959;SDS011;39866;48.638;-2.020;2023-08-17T02:51:40;2.70;;;1.35;;
53959;SDS011;39866;48.638;-2.020;2023-08-17T02:54:05;2.55;;;1.20;;
53959;SDS011;39866;48.638;-2.020;2023-08-17T02:56:30;2.55;;;1.38;;
53959;SDS011;39866;48.638;-2.020;2023-08-17T02:58:56;3.80;;;1.50;;
53959;SDS011;39866;48.638;-2.020;2023-08-17T03:01:21;1.95;;;1.23;;
53959;SDS011;39866;48.638;-2.020;2023-08-17T03:03:46;2.95;;;1.20;;
53959;SDS011;39866;48.638;-2.020;2023-08-17T03:06:12;2.15;;;1.30;;
53959;SDS011;39866;48.638;-2.020;2023-08-17T03:08:37;2.08;;;1.23;;
53959;SDS011;39866;48.638;-2.020;2023-08-17T03:11:02;1.80;;;1.05;;
53959;SDS011;39866;48.638;-2.020;2023-08-17T03:13:28;1.80;;;1.10;;
53959;SDS011;39866;48.638;-2.020;2023-08-17T03:15:54;2.55;;;1.20;;
53959;SDS011;39866;48.638;-2.020;2023-08-17T03:18:19;2.15;;;1.00;;
53959;SDS011;39866;48.638;-2.020;2023-08-17T03:20:45;2.55;;;1.20;;
53959;SDS011;39866;48.638;-2.020;2023-08-17T03:23:11;2.45;;;1.20;;
53959;SDS011;39866;48.638;-2.020;2023-08-17T03:25:36;2.15;;;1.20;;
53959;SDS011;39866;48.638;-2.020;2023-08-17T03:28:02;1.67;;;1.00;;
53959;SDS011;39866;48.638;-2.020;2023-08-17T03:30:28;1.67;;;1.10;;
53959;SDS011;39866;48.638;-2.020;2023-08-17T03:32:53;2.45;;;1.20;;
53959;SDS011;39866;48.638;-2.020;2023-08-17T03:35:19;2.55;;;1.30;;
53959;SDS011;39866;48.638;-2.020;2023-08-17T03:37:44;2.30;;;1.17;;
53959;SDS011;39866;48.638;-2.020;2023-08-17T03:40:10;2.10;;;1.15;;
53959;SDS011;39866;48.638;-2.020;2023-08-17T03:42:36;1.80;;;1.10;;
53959;SDS011;39866;48.638;-2.020;2023-08-17T03:45:01;2.17;;;1.13;;
53959;SDS011;39866;48.638;-2.020;2023-08-17T03:47:27;1.92;;;1.30;;
53959;SDS011;39866;48.638;-2.020;2023-08-17T03:49:52;1.83;;;1.00;;
53959;SDS011;39866;48.638;-2.020;2023-08-17T03:52:17;1.15;;;1.05;;
53959;SDS011;39866;48.638;-2.020;2023-08-17T03:54:43;2.17;;;1.20;;
53959;SDS011;39866;48.638;-2.020;2023-08-17T03:57:08;1.95;;;1.15;;
53959;SDS011;39866;48.638;-2.020;2023-08-17T03:59:33;2.63;;;1.40;;
53959;SDS011;39866;48.638;-2.020;2023-08-17T04:01:59;3.10;;;1.20;;
53959;SDS011;39866;48.638;-2.020;2023-08-17T04:04:24;2.58;;;1.30;;
53959;SDS011;39866;48.638;-2.020;2023-08-17T04:06:49;2.03;;;1.27;;
53959;SDS011;39866;48.638;-2.020;2023-08-17T04:09:15;1.92;;;1.10;;
53959;SDS011;39866;48.638;-2.020;2023-08-17T04:11:40;2.13;;;1.30;;
53959;SDS011;39866;48.638;-2.020;2023-08-17T04:14:05;1.65;;;1.15;;
53959;SDS011;39866;48.638;-2.020;2023-08-17T04:16:32;3.05;;;1.50;;
53959;SDS011;39866;48.638;-2.020;2023-08-17T04:18:57;1.67;;;1.10;;
53959;SDS011;39866;48.638;-2.020;2023-08-17T04:21:22;1.92;;;1.10;;
53959;SDS011;39866;48.638;-2.020;2023-08-17T04:23:48;2.00;;;1.25;;
53959;SDS011;39866;48.638;-2.020;2023-08-17T04:26:13;3.05;;;1.45;;
53959;SDS011;39866;48.638;-2.020;2023-08-17T04:28:38;2.30;;;1.35;;
53959;SDS011;39866;48.638;-2.020;2023-08-17T04:31:03;3.65;;;1.40;;
53959;SDS011;39866;48.638;-2.020;2023-08-17T04:33:29;3.08;;;1.40;;
53959;SDS011;39866;48.638;-2.020;2023-08-17T04:35:54;2.97;;;1.35;;
53959;SDS011;39866;48.638;-2.020;2023-08-17T04:38:20;2.25;;;1.65;;
53959;SDS011;39866;48.638;-2.020;2023-08-17T04:40:45;3.10;;;1.50;;
53959;SDS011;39866;48.638;-2.020;2023-08-17T04:43:11;2.42;;;1.38;;
53959;SDS011;39866;48.638;-2.020;2023-08-17T04:45:36;3.90;;;1.50;;
53959;SDS011;39866;48.638;-2.020;2023-08-17T04:48:02;3.80;;;1.73;;
53959;SDS011;39866;48.638;-2.020;2023-08-17T04:50:27;2.45;;;1.40;;
53959;SDS011;39866;48.638;-2.020;2023-08-17T04:52:53;3.03;;;1.30;;
53959;SDS011;39866;48.638;-2.020;2023-08-17T04:55:18;3.55;;;1.50;;
53959;SDS011;39866;48.638;-2.020;2023-08-17T04:57:43;2.67;;;1.40;;
53959;SDS011;39866;48.638;-2.020;2023-08-17T05:00:09;1.50;;;1.13;;
53959;SDS011;39866;48.638;-2.020;2023-08-17T05:02:35;1.70;;;1.15;;
53959;SDS011;39866;48.638;-2.020;2023-08-17T05:05:04;1.90;;;1.40;;
53959;SDS011;39866;48.638;-2.020;2023-08-17T05:07:31;2.10;;;1.25;;
53959;SDS011;39866;48.638;-2.020;2023-08-17T05:09:57;1.83;;;1.30;;
53959;SDS011;39866;48.638;-2.020;2023-08-17T05:12:22;2.17;;;1.27;;
53959;SDS011;39866;48.638;-2.020;2023-08-17T05:14:47;2.65;;;1.45;;
53959;SDS011;39866;48.638;-2.020;2023-08-17T05:17:13;2.55;;;1.45;;
53959;SDS011;39866;48.638;-2.020;2023-08-17T05:19:38;2.63;;;1.40;;
53959;SDS011;39866;48.638;-2.020;2023-08-17T05:22:08;2.08;;;1.20;;
53959;SDS011;39866;48.638;-2.020;2023-08-17T05:24:35;1.85;;;1.30;;
53959;SDS011;39866;48.638;-2.020;2023-08-17T05:27:01;3.17;;;1.52;;
53959;SDS011;39866;48.638;-2.020;2023-08-17T05:29:26;1.88;;;1.20;;
53959;SDS011;39866;48.638;-2.020;2023-08-17T05:31:51;2.17;;;1.40;;
53959;SDS011;39866;48.638;-2.020;2023-08-17T05:34:17;2.22;;;1.35;;
53959;SDS011;39866;48.638;-2.020;2023-08-17T05:36:42;2.97;;;1.50;;
53959;SDS011;39866;48.638;-2.020;2023-08-17T05:39:07;2.42;;;1.45;;
53959;SDS011;39866;48.638;-2.020;2023-08-17T05:41:34;2.90;;;1.40;;
53959;SDS011;39866;48.638;-2.020;2023-08-17T05:43:59;1.83;;;1.38;;
53959;SDS011;39866;48.638;-2.020;2023-08-17T05:46:25;2.00;;;1.40;;
53959;SDS011;39866;48.638;-2.020;2023-08-17T05:48:50;2.58;;;1.50;;
53959;SDS011;39866;48.638;-2.020;2023-08-17T05:51:15;2.35;;;1.40;;
53959;SDS011;39866;48.638;-2.020;2023-08-17T05:53:41;3.35;;;1.45;;
53959;SDS011;39866;48.638;-2.020;2023-08-17T05:56:06;5.20;;;1.80;;
53959;SDS011;39866;48.638;-2.020;2023-08-17T05:58:32;2.20;;;1.50;;
53959;SDS011;39866;48.638;-2.020;2023-08-17T06:01:04;2.28;;;1.58;;
53959;SDS011;39866;48.638;-2.020;2023-08-17T06:03:30;2.95;;;1.73;;
53959;SDS011;39866;48.638;-2.020;2023-08-17T06:05:55;2.63;;;1.30;;
53959;SDS011;39866;48.638;-2.020;2023-08-17T06:08:21;2.08;;;1.52;;
53959;SDS011;39866;48.638;-2.020;2023-08-17T06:10:46;2.78;;;1.45;;
53959;SDS011;39866;48.638;-2.020;2023-08-17T06:13:11;2.53;;;1.45;;
53959;SDS011;39866;48.638;-2.020;2023-08-17T06:15:37;3.17;;;1.65;;
53959;SDS011;39866;48.638;-2.020;2023-08-17T06:18:02;1.65;;;1.40;;
53959;SDS011;39866;48.638;-2.020;2023-08-17T06:20:27;3.78;;;1.60;;
53959;SDS011;39866;48.638;-2.020;2023-08-17T06:22:53;1.65;;;1.35;;
53959;SDS011;39866;48.638;-2.020;2023-08-17T06:25:18;1.60;;;1.30;;
53959;SDS011;39866;48.638;-2.020;2023-08-17T06:27:43;2.33;;;1.30;;
53959;SDS011;39866;48.638;-2.020;2023-08-17T06:30:09;2.72;;;1.40;;
53959;SDS011;39866;48.638;-2.020;2023-08-17T06:32:35;2.85;;;1.60;;
53959;SDS011;39866;48.638;-2.020;2023-08-17T06:35:00;3.00;;;1.52;;
53959;SDS011;39866;48.638;-2.020;2023-08-17T06:37:26;2.67;;;1.30;;
53959;SDS011;39866;48.638;-2.020;2023-08-17T06:39:51;2.60;;;1.30;;
53959;SDS011;39866;48.638;-2.020;2023-08-17T06:42:16;3.20;;;1.40;;
53959;SDS011;39866;48.638;-2.020;2023-08-17T06:44:42;2.35;;;1.42;;
53959;SDS011;39866;48.638;-2.020;2023-08-17T06:47:07;2.10;;;1.40;;
53959;SDS011;39866;48.638;-2.020;2023-08-17T06:49:32;2.75;;;1.58;;
53959;SDS011;39866;48.638;-2.020;2023-08-17T06:51:57;3.15;;;1.30;;
53959;SDS011;39866;48.638;-2.020;2023-08-17T06:54:23;1.95;;;1.20;;
53959;SDS011;39866;48.638;-2.020;2023-08-17T06:56:48;2.22;;;1.40;;
53959;SDS011;39866;48.638;-2.020;2023-08-17T06:59:13;2.42;;;1.40;;
53959;SDS011;39866;48.638;-2.020;2023-08-17T07:01:39;2.08;;;1.40;;
53959;SDS011;39866;48.638;-2.020;2023-08-17T07:04:04;2.67;;;1.50;;
53959;SDS011;39866;48.638;-2.020;2023-08-17T07:06:30;1.45;;;1.20;;
53959;SDS011;39866;48.638;-2.020;2023-08-17T07:08:55;1.88;;;1.30;;
53959;SDS011;39866;48.638;-2.020;2023-08-17T07:11:21;2.20;;;1.30;;
53959;SDS011;39866;48.638;-2.020;2023-08-17T07:13:47;1.85;;;1.48;;
53959;SDS011;39866;48.638;-2.020;2023-08-17T07:16:12;1.83;;;1.30;;
53959;SDS011;39866;48.638;-2.020;2023-08-17T07:18:38;2.60;;;1.40;;
53959;SDS011;39866;48.638;-2.020;2023-08-17T07:21:03;3.80;;;1.60;;
53959;SDS011;39866;48.638;-2.020;2023-08-17T07:23:28;3.50;;;1.60;;
53959;SDS011;39866;48.638;-2.020;2023-08-17T07:25:54;2.70;;;1.60;;
53959;SDS011;39866;48.638;-2.020;2023-08-17T07:28:19;2.75;;;1.52;;
53959;SDS011;39866;48.638;-2.020;2023-08-17T07:30:44;2.75;;;1.60;;
53959;SDS011;39866;48.638;-2.020;2023-08-17T07:33:10;3.47;;;1.60;;
53959;SDS011;39866;48.638;-2.020;2023-08-17T07:35:35;2.15;;;1.30;;
53959;SDS011;39866;48.638;-2.020;2023-08-17T07:38:01;1.92;;;1.38;;
53959;SDS011;39866;48.638;-2.020;2023-08-17T07:40:26;1.58;;;1.20;;
53959;SDS011;39866;48.638;-2.020;2023-08-17T07:42:51;3.28;;;1.50;;
53959;SDS011;39866;48.638;-2.020;2023-08-17T07:45:17;2.10;;;1.30;;
53959;SDS011;39866;48.638;-2.020;2023-08-17T07:47:43;2.45;;;1.40;;
53959;SDS011;39866;48.638;-2.020;2023-08-17T07:50:08;2.50;;;1.60;;
53959;SDS011;39866;48.638;-2.020;2023-08-17T07:52:33;3.22;;;1.80;;
53959;SDS011;39866;48.638;-2.020;2023-08-17T07:54:59;2.75;;;1.60;;
53959;SDS011;39866;48.638;-2.020;2023-08-17T07:57:24;2.25;;;1.10;;
53959;SDS011;39866;48.638;-2.020;2023-08-17T07:59:50;2.10;;;1.50;;
53959;SDS011;39866;48.638;-2.020;2023-08-17T08:02:16;1.95;;;1.25;;
53959;SDS011;39866;48.638;-2.020;2023-08-17T08:04:42;3.03;;;1.40;;
53959;SDS011;39866;48.638;-2.020;2023-08-17T08:07:07;1.50;;;1.25;;
53959;SDS011;39866;48.638;-2.020;2023-08-17T08:09:32;1.63;;;1.30;;
53959;SDS011;39866;48.638;-2.020;2023-08-17T08:11:58;2.35;;;1.48;;
53959;SDS011;39866;48.638;-2.020;2023-08-17T08:14:23;1.98;;;1.35;;
53959;SDS011;39866;48.638;-2.020;2023-08-17T08:16:48;2.00;;;1.40;;
53959;SDS011;39866;48.638;-2.020;2023-08-17T08:19:14;1.40;;;1.27;;
53959;SDS011;39866;48.638;-2.020;2023-08-17T08:21:39;2.05;;;1.45;;
53959;SDS011;39866;48.638;-2.020;2023-08-17T08:24:04;3.60;;;1.60;;
53959;SDS011;39866;48.638;-2.020;2023-08-17T08:26:30;2.75;;;1.60;;
53959;SDS011;39866;48.638;-2.020;2023-08-17T08:28:55;1.65;;;1.40;;
53959;SDS011;39866;48.638;-2.020;2023-08-17T08:31:20;4.57;;;1.77;;
53959;SDS011;39866;48.638;-2.020;2023-08-17T08:33:46;2.22;;;1.70;;
53959;SDS011;39866;48.638;-2.020;2023-08-17T08:36:11;2.60;;;1.60;;
53959;SDS011;39866;48.638;-2.020;2023-08-17T08:38:36;1.42;;;1.33;;
53959;SDS011;39866;48.638;-2.020;2023-08-17T08:41:02;2.72;;;1.60;;
53959;SDS011;39866;48.638;-2.020;2023-08-17T08:43:28;1.65;;;1.55;;
53959;SDS011;39866;48.638;-2.020;2023-08-17T08:45:53;2.50;;;1.90;;
53959;SDS011;39866;48.638;-2.020;2023-08-17T08:48:20;2.08;;;1.70;;
53959;SDS011;39866;48.638;-2.020;2023-08-17T08:50:47;4.18;;;1.80;;
53959;SDS011;39866;48.638;-2.020;2023-08-17T08:53:15;3.40;;;1.90;;
53959;SDS011;39866;48.638;-2.020;2023-08-17T08:55:51;1.90;;;1.70;;
53959;SDS011;39866;48.638;-2.020;2023-08-17T08:58:22;2.30;;;1.90;;
53959;SDS011;39866;48.638;-2.020;2023-08-17T09:00:50;2.70;;;2.13;;
53959;SDS011;39866;48.638;-2.020;2023-08-17T09:03:15;2.70;;;2.10;;
53959;SDS011;39866;48.638;-2.020;2023-08-17T09:05:44;3.88;;;1.80;;
53959;SDS011;39866;48.638;-2.020;2023-08-17T09:08:12;2.80;;;2.05;;
53959;SDS011;39866;48.638;-2.020;2023-08-17T09:10:38;3.10;;;2.00;;
53959;SDS011;39866;48.638;-2.020;2023-08-17T09:13:04;2.85;;;1.90;;
53959;SDS011;39866;48.638;-2.020;2023-08-17T09:15:29;3.67;;;2.10;;
53959;SDS011;39866;48.638;-2.020;2023-08-17T09:17:54;2.42;;;2.15;;
53959;SDS011;39866;48.638;-2.020;2023-08-17T09:20:42;3.05;;;2.28;;
53959;SDS011;39866;48.638;-2.020;2023-08-17T09:23:14;3.80;;;2.30;;
53959;SDS011;39866;48.638;-2.020;2023-08-17T09:25:42;3.35;;;2.20;;
53959;SDS011;39866;48.638;-2.020;2023-08-17T09:28:09;3.70;;;2.60;;
53959;SDS011;39866;48.638;-2.020;2023-08-17T09:30:51;3.28;;;2.30;;
53959;SDS011;39866;48.638;-2.020;2023-08-17T09:33:22;4.17;;;2.90;;
53959;SDS011;39866;48.638;-2.020;2023-08-17T09:35:52;3.83;;;2.70;;
53959;SDS011;39866;48.638;-2.020;2023-08-17T09:38:19;4.00;;;2.72;;
53959;SDS011;39866;48.638;-2.020;2023-08-17T09:40:45;4.55;;;3.30;;
53959;SDS011;39866;48.638;-2.020;2023-08-17T09:43:11;4.53;;;2.85;;
53959;SDS011;39866;48.638;-2.020;2023-08-17T09:45:38;4.75;;;3.03;;
53959;SDS011;39866;48.638;-2.020;2023-08-17T09:48:04;4.68;;;3.13;;
53959;SDS011;39866;48.638;-2.020;2023-08-17T09:50:30;3.50;;;2.70;;
53959;SDS011;39866;48.638;-2.020;2023-08-17T09:52:56;3.88;;;3.03;;
53959;SDS011;39866;48.638;-2.020;2023-08-17T09:55:22;4.47;;;2.97;;
53959;SDS011;39866;48.638;-2.020;2023-08-17T09:57:48;4.32;;;3.10;;
53959;SDS011;39866;48.638;-2.020;2023-08-17T10:00:15;5.00;;;3.03;;
53959;SDS011;39866;48.638;-2.020;2023-08-17T10:02:40;4.13;;;2.92;;
53959;SDS011;39866;48.638;-2.020;2023-08-17T10:05:09;4.43;;;3.00;;
53959;SDS011;39866;48.638;-2.020;2023-08-17T10:07:37;4.78;;;3.08;;
53959;SDS011;39866;48.638;-2.020;2023-08-17T10:10:06;3.20;;;2.63;;
53959;SDS011;39866;48.638;-2.020;2023-08-17T10:12:33;4.38;;;2.95;;
53959;SDS011;39866;48.638;-2.020;2023-08-17T10:15:08;4.28;;;2.90;;
53959;SDS011;39866;48.638;-2.020;2023-08-17T10:17:44;5.18;;;3.60;;
53959;SDS011;39866;48.638;-2.020;2023-08-17T10:20:29;4.30;;;2.97;;
53959;SDS011;39866;48.638;-2.020;2023-08-17T10:23:01;4.50;;;3.22;;
53959;SDS011;39866;48.638;-2.020;2023-08-17T10:25:35;3.95;;;3.30;;
53959;SDS011;39866;48.638;-2.020;2023-08-17T10:28:02;4.85;;;3.63;;
53959;SDS011;39866;48.638;-2.020;2023-08-17T10:30:28;4.32;;;3.30;;
53959;SDS011;39866;48.638;-2.020;2023-08-17T10:32:54;3.70;;;3.00;;
53959;SDS011;39866;48.638;-2.020;2023-08-17T10:35:20;3.50;;;3.10;;
53959;SDS011;39866;48.638;-2.020;2023-08-17T10:37:46;4.75;;;3.08;;
53959;SDS011;39866;48.638;-2.020;2023-08-17T10:40:11;4.13;;;2.80;;
53959;SDS011;39866;48.638;-2.020;2023-08-17T10:42:37;6.50;;;3.70;;
53959;SDS011;39866;48.638;-2.020;2023-08-17T10:50:34;5.95;;;4.45;;
53959;SDS011;39866;48.638;-2.020;2023-08-17T10:53:04;5.40;;;4.28;;
53959;SDS011;39866;48.638;-2.020;2023-08-17T10:55:37;5.28;;;3.78;;
53959;SDS011;39866;48.638;-2.020;2023-08-17T10:58:07;6.50;;;3.90;;
53959;SDS011;39866;48.638;-2.020;2023-08-17T11:00:39;4.60;;;3.50;;
53959;SDS011;39866;48.638;-2.020;2023-08-17T11:08:20;5.30;;;3.47;;
53959;SDS011;39866;48.638;-2.020;2023-08-17T11:11:02;8.70;;;7.30;;
53959;SDS011;39866;48.638;-2.020;2023-08-17T11:13:31;19.38;;;16.35;;
53959;SDS011;39866;48.638;-2.020;2023-08-17T11:15:58;10.98;;;9.80;;
53959;SDS011;39866;48.638;-2.020;2023-08-17T11:18:25;7.43;;;5.35;;
53959;SDS011;39866;48.638;-2.020;2023-08-17T11:20:50;4.97;;;4.20;;
53959;SDS011;39866;48.638;-2.020;2023-08-17T11:23:16;4.68;;;3.65;;
53959;SDS011;39866;48.638;-2.020;2023-08-17T11:25:42;4.85;;;3.70;;
53959;SDS011;39866;48.638;-2.020;2023-08-17T11:28:08;4.57;;;3.30;;
53959;SDS011;39866;48.638;-2.020;2023-08-17T11:30:34;8.13;;;5.45;;
53959;SDS011;39866;48.638;-2.020;2023-08-17T11:33:00;8.88;;;6.68;;
53959;SDS011;39866;48.638;-2.020;2023-08-17T11:35:26;10.25;;;6.80;;
53959;SDS011;39866;48.638;-2.020;2023-08-17T11:37:51;8.77;;;5.65;;
53959;SDS011;39866;48.638;-2.020;2023-08-17T11:40:17;10.55;;;5.88;;
53959;SDS011;39866;48.638;-2.020;2023-08-17T11:42:43;6.53;;;4.47;;
53959;SDS011;39866;48.638;-2.020;2023-08-17T11:45:11;4.40;;;3.55;;
53959;SDS011;39866;48.638;-2.020;2023-08-17T11:47:40;7.75;;;5.97;;
53959;SDS011;39866;48.638;-2.020;2023-08-17T11:50:09;7.22;;;4.97;;
53959;SDS011;39866;48.638;-2.020;2023-08-17T11:52:35;4.75;;;4.25;;
53959;SDS011;39866;48.638;-2.020;2023-08-17T11:55:02;5.75;;;4.35;;
53959;SDS011;39866;48.638;-2.020;2023-08-17T11:57:29;8.40;;;4.30;;
53959;SDS011;39866;48.638;-2.020;2023-08-17T11:59:55;5.70;;;4.55;;
53959;SDS011;39866;48.638;-2.020;2023-08-17T12:02:25;6.10;;;4.18;;
53959;SDS011;39866;48.638;-2.020;2023-08-17T12:04:54;5.38;;;4.03;;
53959;SDS011;39866;48.638;-2.020;2023-08-17T12:07:21;9.02;;;5.88;;
53959;SDS011;39866;48.638;-2.020;2023-08-17T12:09:49;6.20;;;4.20;;
53959;SDS011;39866;48.638;-2.020;2023-08-17T12:12:18;7.65;;;5.53;;
53959;SDS011;39866;48.638;-2.020;2023-08-17T12:14:45;7.45;;;5.20;;
53959;SDS011;39866;48.638;-2.020;2023-08-17T12:17:18;6.95;;;4.70;;
53959;SDS011;39866;48.638;-2.020;2023-08-17T12:19:44;4.55;;;4.05;;
53959;SDS011;39866;48.638;-2.020;2023-08-17T12:22:14;7.95;;;4.82;;
53959;SDS011;39866;48.638;-2.020;2023-08-17T12:24:42;6.15;;;4.68;;
53959;SDS011;39866;48.638;-2.020;2023-08-17T12:27:08;6.75;;;5.10;;
53959;SDS011;39866;48.638;-2.020;2023-08-17T12:29:34;9.13;;;5.55;;
53959;SDS011;39866;48.638;-2.020;2023-08-17T12:32:11;9.95;;;5.97;;
53959;SDS011;39866;48.638;-2.020;2023-08-17T12:34:39;7.63;;;4.97;;
53959;SDS011;39866;48.638;-2.020;2023-08-17T12:37:04;5.88;;;4.22;;
53959;SDS011;39866;48.638;-2.020;2023-08-17T12:39:29;8.05;;;5.30;;
53959;SDS011;39866;48.638;-2.020;2023-08-17T12:41:54;8.02;;;5.05;;
53959;SDS011;39866;48.638;-2.020;2023-08-17T12:44:20;6.03;;;4.80;;
53959;SDS011;39866;48.638;-2.020;2023-08-17T12:46:45;6.78;;;4.90;;
53959;SDS011;39866;48.638;-2.020;2023-08-17T12:49:10;5.97;;;4.85;;
53959;SDS011;39866;48.638;-2.020;2023-08-17T12:51:36;6.88;;;5.30;;
53959;SDS011;39866;48.638;-2.020;2023-08-17T12:54:03;7.15;;;5.03;;
53959;SDS011;39866;48.638;-2.020;2023-08-17T12:56:28;6.47;;;4.30;;
53959;SDS011;39866;48.638;-2.020;2023-08-17T12:58:53;8.82;;;4.20;;
53959;SDS011;39866;48.638;-2.020;2023-08-17T13:01:19;5.95;;;4.20;;
53959;SDS011;39866;48.638;-2.020;2023-08-17T13:03:44;4.97;;;4.00;;
53959;SDS011;39866;48.638;-2.020;2023-08-17T13:06:09;5.85;;;3.88;;
53959;SDS011;39866;48.638;-2.020;2023-08-17T13:08:35;5.22;;;4.03;;
53959;SDS011;39866;48.638;-2.020;2023-08-17T13:11:00;6.80;;;4.15;;
53959;SDS011;39866;48.638;-2.020;2023-08-17T13:13:26;6.20;;;3.97;;
53959;SDS011;39866;48.638;-2.020;2023-08-17T13:15:51;3.88;;;3.33;;
53959;SDS011;39866;48.638;-2.020;2023-08-17T13:18:17;4.20;;;3.53;;
53959;SDS011;39866;48.638;-2.020;2023-08-17T13:20:42;5.47;;;3.33;;
53959;SDS011;39866;48.638;-2.020;2023-08-17T13:23:08;4.10;;;3.42;;
53959;SDS011;39866;48.638;-2.020;2023-08-17T13:25:33;4.22;;;3.30;;
53959;SDS011;39866;48.638;-2.020;2023-08-17T13:27:59;4.20;;;3.20;;
53959;SDS011;39866;48.638;-2.020;2023-08-17T13:30:24;5.32;;;3.20;;
53959;SDS011;39866;48.638;-2.020;2023-08-17T13:32:50;4.25;;;3.00;;
53959;SDS011;39866;48.638;-2.020;2023-08-17T13:35:16;3.67;;;2.88;;
53959;SDS011;39866;48.638;-2.020;2023-08-17T13:37:41;6.30;;;2.85;;
53959;SDS011;39866;48.638;-2.020;2023-08-17T13:40:07;4.03;;;2.80;;
53959;SDS011;39866;48.638;-2.020;2023-08-17T13:42:33;3.25;;;2.70;;
53959;SDS011;39866;48.638;-2.020;2023-08-17T13:44:59;4.20;;;2.90;;
53959;SDS011;39866;48.638;-2.020;2023-08-17T13:47:25;4.53;;;3.08;;
53959;SDS011;39866;48.638;-2.020;2023-08-17T13:49:50;6.43;;;3.47;;
53959;SDS011;39866;48.638;-2.020;2023-08-17T13:52:16;5.30;;;3.20;;
53959;SDS011;39866;48.638;-2.020;2023-08-17T13:54:41;6.35;;;3.40;;
53959;SDS011;39866;48.638;-2.020;2023-08-17T13:57:06;3.75;;;3.20;;
53959;SDS011;39866;48.638;-2.020;2023-08-17T13:59:32;3.42;;;2.92;;
53959;SDS011;39866;48.638;-2.020;2023-08-17T14:01:57;3.97;;;3.25;;
53959;SDS011;39866;48.638;-2.020;2023-08-17T14:04:22;5.18;;;3.80;;
53959;SDS011;39866;48.638;-2.020;2023-08-17T14:06:48;4.70;;;3.25;;
53959;SDS011;39866;48.638;-2.020;2023-08-17T14:09:13;5.10;;;2.88;;
53959;SDS011;39866;48.638;-2.020;2023-08-17T14:11:39;5.40;;;3.00;;
53959;SDS011;39866;48.638;-2.020;2023-08-17T14:14:04;9.18;;;4.40;;
53959;SDS011;39866;48.638;-2.020;2023-08-17T14:16:30;6.72;;;4.32;;
53959;SDS011;39866;48.638;-2.020;2023-08-17T14:18:56;7.25;;;4.40;;
53959;SDS011;39866;48.638;-2.020;2023-08-17T14:21:21;5.47;;;4.18;;
53959;SDS011;39866;48.638;-2.020;2023-08-17T14:23:46;7.50;;;4.97;;
53959;SDS011;39866;48.638;-2.020;2023-08-17T14:26:12;7.05;;;4.90;;
53959;SDS011;39866;48.638;-2.020;2023-08-17T14:28:37;11.57;;;5.57;;
53959;SDS011;39866;48.638;-2.020;2023-08-17T14:31:03;9.57;;;5.40;;
53959;SDS011;39866;48.638;-2.020;2023-08-17T14:33:28;6.75;;;5.10;;
53959;SDS011;39866;48.638;-2.020;2023-08-17T14:35:53;7.78;;;5.20;;
53959;SDS011;39866;48.638;-2.020;2023-08-17T14:38:19;6.50;;;4.55;;
53959;SDS011;39866;48.638;-2.020;2023-08-17T14:40:45;7.75;;;4.90;;